sensor_id;sensor_type;location;lat;lon;timestamp;temperature;humidity
14739;DHT22;7461;52.440;13.540;2022-08-27T00:00:20;19.40;99.90
14739;DHT22;7461;52.440;13.540;2022-08-27T00:02:48;19.30;99.90
14739;DHT22;7461;52.440;13.540;2022-08-27T00:05:16;19.30;99.90
14739;DHT22;7461;52.440;13.540;2022-08-27T00:07:46;19.30;99.90
14739;DHT22;7461;52.440;13.540;2022-08-27T00:10:15;19.30;99.90
14739;DHT22;7461;52.440;13.540;2022-08-27T00:12:43;19.30;99.90
14739;DHT22;7461;52.440;13.540;2022-08-27T00:15:11;19.30;99.90
14739;DHT22;7461;52.440;13.540;2022-08-27T00:17:40;19.30;99.90
14739;DHT22;7461;52.440;13.540;2022-08-27T00:20:10;19.30;99.90
14739;DHT22;7461;52.440;13.540;2022-08-27T00:22:38;19.30;99.90
14739;DHT22;7461;52.440;13.540;2022-08-27T00:25:07;19.30;99.90
14739;DHT22;7461;52.440;13.540;2022-08-27T00:27:34;19.30;99.90
14739;DHT22;7461;52.440;13.540;2022-08-27T00:30:01;19.30;99.90
14739;DHT22;7461;52.440;13.540;2022-08-27T00:32:28;19.30;99.90
14739;DHT22;7461;52.440;13.540;2022-08-27T00:34:55;19.40;99.90
14739;DHT22;7461;52.440;13.540;2022-08-27T00:37:22;19.40;99.90
14739;DHT22;7461;52.440;13.540;2022-08-27T00:39:49;19.40;99.90
14739;DHT22;7461;52.440;13.540;2022-08-27T00:42:17;19.40;99.90
14739;DHT22;7461;52.440;13.540;2022-08-27T00:44:44;19.40;99.90
14739;DHT22;7461;52.440;13.540;2022-08-27T00:47:14;19.40;99.90
14739;DHT22;7461;52.440;13.540;2022-08-27T00:49:45;19.40;99.90
14739;DHT22;7461;52.440;13.540;2022-08-27T00:52:18;19.40;99.90
14739;DHT22;7461;52.440;13.540;2022-08-27T00:54:46;19.40;99.90
14739;DHT22;7461;52.440;13.540;2022-08-27T00:57:14;19.40;99.90
14739;DHT22;7461;52.440;13.540;2022-08-27T00:59:42;19.50;99.90
14739;DHT22;7461;52.440;13.540;2022-08-27T01:02:10;19.40;99.90
14739;DHT22;7461;52.440;13.540;2022-08-27T01:04:48;19.40;99.90
14739;DHT22;7461;52.440;13.540;2022-08-27T01:07:17;19.40;99.90
14739;DHT22;7461;52.440;13.540;2022-08-27T01:09:46;19.30;99.90
14739;DHT22;7461;52.440;13.540;2022-08-27T01:12:14;19.40;99.90
14739;DHT22;7461;52.440;13.540;2022-08-27T01:14:44;19.40;99.90
14739;DHT22;7461;52.440;13.540;2022-08-27T01:17:12;19.30;99.90
14739;DHT22;7461;52.440;13.540;2022-08-27T01:19:43;19.30;99.90
14739;DHT22;7461;52.440;13.540;2022-08-27T01:22:17;19.30;99.90
14739;DHT22;7461;52.440;13.540;2022-08-27T01:24:48;19.30;99.90
14739;DHT22;7461;52.440;13.540;2022-08-27T01:27:18;19.30;99.90
14739;DHT22;7461;52.440;13.540;2022-08-27T01:29:46;19.30;99.90
14739;DHT22;7461;52.440;13.540;2022-08-27T01:32:17;19.30;99.90
14739;DHT22;7461;52.440;13.540;2022-08-27T01:34:44;19.30;99.90
14739;DHT22;7461;52.440;13.540;2022-08-27T01:37:12;19.30;99.90
14739;DHT22;7461;52.440;13.540;2022-08-27T01:39:40;19.30;99.90
14739;DHT22;7461;52.440;13.540;2022-08-27T01:42:13;19.30;99.90
14739;DHT22;7461;52.440;13.540;2022-08-27T01:44:46;19.30;99.90
14739;DHT22;7461;52.440;13.540;2022-08-27T01:47:13;19.30;99.90
14739;DHT22;7461;52.440;13.540;2022-08-27T01:49:40;19.40;99.90
14739;DHT22;7461;52.440;13.540;2022-08-27T01:52:07;19.40;99.90
14739;DHT22;7461;52.440;13.540;2022-08-27T01:54:34;19.40;99.90
14739;DHT22;7461;52.440;13.540;2022-08-27T01:57:01;19.50;99.90
14739;DHT22;7461;52.440;13.540;2022-08-27T01:59:30;19.50;99.90
14739;DHT22;7461;52.440;13.540;2022-08-27T02:01:59;19.40;99.90
14739;DHT22;7461;52.440;13.540;2022-08-27T02:04:27;19.50;99.90
14739;DHT22;7461;52.440;13.540;2022-08-27T02:06:55;19.50;99.90
14739;DHT22;7461;52.440;13.540;2022-08-27T02:09:22;19.50;99.90
14739;DHT22;7461;52.440;13.540;2022-08-27T02:11:49;19.50;99.90
14739;DHT22;7461;52.440;13.540;2022-08-27T02:14:17;19.50;99.90
14739;DHT22;7461;52.440;13.540;2022-08-27T02:16:46;19.50;99.90
14739;DHT22;7461;52.440;13.540;2022-08-27T02:19:13;19.50;99.90
14739;DHT22;7461;52.440;13.540;2022-08-27T02:21:41;19.60;99.90
14739;DHT22;7461;52.440;13.540;2022-08-27T02:24:08;19.60;99.90
14739;DHT22;7461;52.440;13.540;2022-08-27T02:26:35;19.60;99.90
14739;DHT22;7461;52.440;13.540;2022-08-27T02:29:03;19.60;99.90
14739;DHT22;7461;52.440;13.540;2022-08-27T02:31:30;19.60;99.90
14739;DHT22;7461;52.440;13.540;2022-08-27T02:33:58;19.70;99.90
14739;DHT22;7461;52.440;13.540;2022-08-27T02:36:26;19.70;99.90
14739;DHT22;7461;52.440;13.540;2022-08-27T02:38:53;19.70;99.90
14739;DHT22;7461;52.440;13.540;2022-08-27T02:41:21;19.70;99.90
14739;DHT22;7461;52.440;13.540;2022-08-27T02:43:47;19.70;99.90
14739;DHT22;7461;52.440;13.540;2022-08-27T02:46:14;19.70;99.90
14739;DHT22;7461;52.440;13.540;2022-08-27T02:48:41;19.70;99.90
14739;DHT22;7461;52.440;13.540;2022-08-27T02:51:10;19.70;99.90
14739;DHT22;7461;52.440;13.540;2022-08-27T02:53:37;19.80;99.90
14739;DHT22;7461;52.440;13.540;2022-08-27T02:56:04;19.80;99.90
14739;DHT22;7461;52.440;13.540;2022-08-27T02:58:31;19.80;99.90
14739;DHT22;7461;52.440;13.540;2022-08-27T03:00:59;19.80;99.90
14739;DHT22;7461;52.440;13.540;2022-08-27T03:03:27;19.80;99.90
14739;DHT22;7461;52.440;13.540;2022-08-27T03:05:54;19.80;99.90
14739;DHT22;7461;52.440;13.540;2022-08-27T03:08:23;19.90;99.90
14739;DHT22;7461;52.440;13.540;2022-08-27T03:10:51;19.90;99.90
14739;DHT22;7461;52.440;13.540;2022-08-27T03:13:18;19.90;99.90
14739;DHT22;7461;52.440;13.540;2022-08-27T03:15:45;19.90;99.90
14739;DHT22;7461;52.440;13.540;2022-08-27T03:18:13;19.90;99.90
14739;DHT22;7461;52.440;13.540;2022-08-27T03:20:48;19.90;99.90
14739;DHT22;7461;52.440;13.540;2022-08-27T03:23:16;19.90;99.90
14739;DHT22;7461;52.440;13.540;2022-08-27T03:25:49;19.90;99.90
14739;DHT22;7461;52.440;13.540;2022-08-27T03:28:17;19.90;99.90
14739;DHT22;7461;52.440;13.540;2022-08-27T03:30:47;19.80;99.90
14739;DHT22;7461;52.440;13.540;2022-08-27T03:33:15;19.80;99.90
14739;DHT22;7461;52.440;13.540;2022-08-27T03:35:42;19.80;99.90
14739;DHT22;7461;52.440;13.540;2022-08-27T03:38:09;19.80;99.90
14739;DHT22;7461;52.440;13.540;2022-08-27T03:40:36;19.90;99.90
14739;DHT22;7461;52.440;13.540;2022-08-27T03:43:04;19.90;99.90
14739;DHT22;7461;52.440;13.540;2022-08-27T03:45:31;19.90;99.90
14739;DHT22;7461;52.440;13.540;2022-08-27T03:47:57;19.90;99.90
14739;DHT22;7461;52.440;13.540;2022-08-27T03:50:24;19.90;99.90
14739;DHT22;7461;52.440;13.540;2022-08-27T03:52:51;19.90;99.90
14739;DHT22;7461;52.440;13.540;2022-08-27T03:55:18;19.90;99.90
14739;DHT22;7461;52.440;13.540;2022-08-27T03:57:45;19.90;99.90
14739;DHT22;7461;52.440;13.540;2022-08-27T04:00:15;19.90;99.90
14739;DHT22;7461;52.440;13.540;2022-08-27T04:02:42;19.90;99.90
14739;DHT22;7461;52.440;13.540;2022-08-27T04:05:10;20.00;99.90
14739;DHT22;7461;52.440;13.540;2022-08-27T04:07:38;20.00;99.90
14739;DHT22;7461;52.440;13.540;2022-08-27T04:10:06;19.90;99.90
14739;DHT22;7461;52.440;13.540;2022-08-27T04:12:34;19.90;99.90
14739;DHT22;7461;52.440;13.540;2022-08-27T04:15:01;20.00;99.90
14739;DHT22;7461;52.440;13.540;2022-08-27T04:17:29;20.00;99.90
14739;DHT22;7461;52.440;13.540;2022-08-27T04:19:56;20.00;99.90
14739;DHT22;7461;52.440;13.540;2022-08-27T04:22:24;20.00;99.90
14739;DHT22;7461;52.440;13.540;2022-08-27T04:24:52;20.00;99.90
14739;DHT22;7461;52.440;13.540;2022-08-27T04:27:20;19.90;99.90
14739;DHT22;7461;52.440;13.540;2022-08-27T04:29:47;20.00;99.90
14739;DHT22;7461;52.440;13.540;2022-08-27T04:32:14;20.00;99.90
14739;DHT22;7461;52.440;13.540;2022-08-27T04:34:42;20.00;99.90
14739;DHT22;7461;52.440;13.540;2022-08-27T04:37:09;20.00;99.90
14739;DHT22;7461;52.440;13.540;2022-08-27T04:39:36;20.00;99.90
14739;DHT22;7461;52.440;13.540;2022-08-27T04:42:06;20.00;99.90
14739;DHT22;7461;52.440;13.540;2022-08-27T04:44:34;20.00;99.90
14739;DHT22;7461;52.440;13.540;2022-08-27T04:47:03;20.00;99.90
14739;DHT22;7461;52.440;13.540;2022-08-27T04:49:30;20.00;99.90
14739;DHT22;7461;52.440;13.540;2022-08-27T04:51:59;20.00;99.90
14739;DHT22;7461;52.440;13.540;2022-08-27T04:54:26;19.90;99.90
14739;DHT22;7461;52.440;13.540;2022-08-27T04:56:53;19.90;99.90
14739;DHT22;7461;52.440;13.540;2022-08-27T04:59:20;19.90;99.90
14739;DHT22;7461;52.440;13.540;2022-08-27T05:01:47;19.90;99.90
14739;DHT22;7461;52.440;13.540;2022-08-27T05:04:15;20.00;99.90
14739;DHT22;7461;52.440;13.540;2022-08-27T05:06:43;20.00;99.90
14739;DHT22;7461;52.440;13.540;2022-08-27T05:09:12;20.00;99.90
14739;DHT22;7461;52.440;13.540;2022-08-27T05:11:39;19.90;99.90
14739;DHT22;7461;52.440;13.540;2022-08-27T05:14:08;20.00;99.90
14739;DHT22;7461;52.440;13.540;2022-08-27T05:16:36;19.90;99.90
14739;DHT22;7461;52.440;13.540;2022-08-27T05:19:04;19.90;99.90
14739;DHT22;7461;52.440;13.540;2022-08-27T05:21:34;19.90;99.90
14739;DHT22;7461;52.440;13.540;2022-08-27T05:24:04;19.90;99.90
14739;DHT22;7461;52.440;13.540;2022-08-27T05:26:34;19.90;99.90
14739;DHT22;7461;52.440;13.540;2022-08-27T05:29:01;20.00;99.90
14739;DHT22;7461;52.440;13.540;2022-08-27T05:31:29;20.00;99.90
14739;DHT22;7461;52.440;13.540;2022-08-27T05:33:56;20.00;99.90
14739;DHT22;7461;52.440;13.540;2022-08-27T05:36:26;20.00;99.90
14739;DHT22;7461;52.440;13.540;2022-08-27T05:38:54;20.00;99.90
14739;DHT22;7461;52.440;13.540;2022-08-27T05:41:23;19.90;99.90
14739;DHT22;7461;52.440;13.540;2022-08-27T05:43:53;20.00;99.90
14739;DHT22;7461;52.440;13.540;2022-08-27T05:46:23;20.00;99.90
14739;DHT22;7461;52.440;13.540;2022-08-27T05:48:51;20.00;99.90
14739;DHT22;7461;52.440;13.540;2022-08-27T05:51:20;20.00;99.90
14739;DHT22;7461;52.440;13.540;2022-08-27T05:53:47;20.00;99.90
14739;DHT22;7461;52.440;13.540;2022-08-27T05:56:17;20.00;99.90
14739;DHT22;7461;52.440;13.540;2022-08-27T05:58:44;20.00;99.90
14739;DHT22;7461;52.440;13.540;2022-08-27T06:01:33;19.90;99.90
14739;DHT22;7461;52.440;13.540;2022-08-27T06:04:00;20.00;99.90
14739;DHT22;7461;52.440;13.540;2022-08-27T06:06:27;20.00;99.90
14739;DHT22;7461;52.440;13.540;2022-08-27T06:08:54;20.00;99.90
14739;DHT22;7461;52.440;13.540;2022-08-27T06:11:21;20.00;99.90
14739;DHT22;7461;52.440;13.540;2022-08-27T06:13:48;20.00;99.90
14739;DHT22;7461;52.440;13.540;2022-08-27T06:16:17;20.00;99.90
14739;DHT22;7461;52.440;13.540;2022-08-27T06:18:54;20.00;99.90
14739;DHT22;7461;52.440;13.540;2022-08-27T06:21:23;19.90;99.90
14739;DHT22;7461;52.440;13.540;2022-08-27T06:23:51;20.00;99.90
14739;DHT22;7461;52.440;13.540;2022-08-27T06:26:20;20.00;99.90
14739;DHT22;7461;52.440;13.540;2022-08-27T06:28:47;20.00;99.90
14739;DHT22;7461;52.440;13.540;2022-08-27T06:31:17;20.00;99.90
14739;DHT22;7461;52.440;13.540;2022-08-27T06:33:46;20.00;99.90
14739;DHT22;7461;52.440;13.540;2022-08-27T06:36:15;20.00;99.90
14739;DHT22;7461;52.440;13.540;2022-08-27T06:38:43;20.00;99.90
14739;DHT22;7461;52.440;13.540;2022-08-27T06:41:12;20.00;99.90
14739;DHT22;7461;52.440;13.540;2022-08-27T06:43:40;20.00;99.90
14739;DHT22;7461;52.440;13.540;2022-08-27T06:46:10;20.00;99.90
14739;DHT22;7461;52.440;13.540;2022-08-27T06:48:37;20.10;99.90
14739;DHT22;7461;52.440;13.540;2022-08-27T06:51:11;20.10;99.90
14739;DHT22;7461;52.440;13.540;2022-08-27T06:53:38;20.00;99.90
14739;DHT22;7461;52.440;13.540;2022-08-27T06:56:06;20.00;99.90
14739;DHT22;7461;52.440;13.540;2022-08-27T06:58:33;20.00;99.90
14739;DHT22;7461;52.440;13.540;2022-08-27T07:01:00;20.00;99.90
14739;DHT22;7461;52.440;13.540;2022-08-27T07:03:27;20.10;99.90
14739;DHT22;7461;52.440;13.540;2022-08-27T07:06:03;20.00;99.90
14739;DHT22;7461;52.440;13.540;2022-08-27T07:08:32;20.00;99.90
14739;DHT22;7461;52.440;13.540;2022-08-27T07:10:59;20.00;99.90
14739;DHT22;7461;52.440;13.540;2022-08-27T07:13:26;20.10;99.90
14739;DHT22;7461;52.440;13.540;2022-08-27T07:15:54;20.00;99.90
14739;DHT22;7461;52.440;13.540;2022-08-27T07:18:21;20.00;99.90
14739;DHT22;7461;52.440;13.540;2022-08-27T07:20:51;20.10;99.90
14739;DHT22;7461;52.440;13.540;2022-08-27T07:23:18;20.00;99.90
14739;DHT22;7461;52.440;13.540;2022-08-27T07:25:46;20.00;99.90
14739;DHT22;7461;52.440;13.540;2022-08-27T07:28:13;20.10;99.90
14739;DHT22;7461;52.440;13.540;2022-08-27T07:30:40;20.10;99.90
14739;DHT22;7461;52.440;13.540;2022-08-27T07:33:07;20.10;99.90
14739;DHT22;7461;52.440;13.540;2022-08-27T07:35:34;20.10;99.90
14739;DHT22;7461;52.440;13.540;2022-08-27T07:38:01;20.10;99.90
14739;DHT22;7461;52.440;13.540;2022-08-27T07:40:28;20.20;99.90
14739;DHT22;7461;52.440;13.540;2022-08-27T07:42:56;20.10;99.90
14739;DHT22;7461;52.440;13.540;2022-08-27T07:45:44;20.20;99.90
14739;DHT22;7461;52.440;13.540;2022-08-27T07:48:11;20.20;99.90
14739;DHT22;7461;52.440;13.540;2022-08-27T07:50:38;20.20;99.90
14739;DHT22;7461;52.440;13.540;2022-08-27T07:53:05;20.20;99.90
14739;DHT22;7461;52.440;13.540;2022-08-27T07:55:35;20.20;99.90
14739;DHT22;7461;52.440;13.540;2022-08-27T07:58:04;20.20;99.90
14739;DHT22;7461;52.440;13.540;2022-08-27T08:00:31;20.30;99.90
14739;DHT22;7461;52.440;13.540;2022-08-27T08:02:59;20.30;99.90
14739;DHT22;7461;52.440;13.540;2022-08-27T08:05:26;20.20;99.90
14739;DHT22;7461;52.440;13.540;2022-08-27T08:07:54;20.30;99.90
14739;DHT22;7461;52.440;13.540;2022-08-27T08:10:20;20.30;99.90
14739;DHT22;7461;52.440;13.540;2022-08-27T08:12:48;20.30;99.90
14739;DHT22;7461;52.440;13.540;2022-08-27T08:15:18;20.40;99.90
14739;DHT22;7461;52.440;13.540;2022-08-27T08:17:45;20.40;99.90
14739;DHT22;7461;52.440;13.540;2022-08-27T08:20:13;20.40;99.90
14739;DHT22;7461;52.440;13.540;2022-08-27T08:22:40;20.40;99.90
14739;DHT22;7461;52.440;13.540;2022-08-27T08:25:08;20.40;99.90
14739;DHT22;7461;52.440;13.540;2022-08-27T08:27:35;20.40;99.90
14739;DHT22;7461;52.440;13.540;2022-08-27T08:30:02;20.40;99.90
14739;DHT22;7461;52.440;13.540;2022-08-27T08:32:31;20.30;99.90
14739;DHT22;7461;52.440;13.540;2022-08-27T08:35:00;20.30;99.90
14739;DHT22;7461;52.440;13.540;2022-08-27T08:37:27;20.30;99.90
14739;DHT22;7461;52.440;13.540;2022-08-27T08:39:54;20.30;99.90
14739;DHT22;7461;52.440;13.540;2022-08-27T08:42:29;20.30;99.90
14739;DHT22;7461;52.440;13.540;2022-08-27T08:44:58;20.30;99.90
14739;DHT22;7461;52.440;13.540;2022-08-27T08:47:31;20.30;99.90
14739;DHT22;7461;52.440;13.540;2022-08-27T08:50:04;20.30;99.90
14739;DHT22;7461;52.440;13.540;2022-08-27T08:52:42;20.20;99.90
14739;DHT22;7461;52.440;13.540;2022-08-27T08:55:29;20.30;99.90
14739;DHT22;7461;52.440;13.540;2022-08-27T08:58:15;20.30;99.90
14739;DHT22;7461;52.440;13.540;2022-08-27T09:00:47;20.30;99.90
14739;DHT22;7461;52.440;13.540;2022-08-27T09:03:19;20.40;99.90
14739;DHT22;7461;52.440;13.540;2022-08-27T09:05:51;20.40;99.90
14739;DHT22;7461;52.440;13.540;2022-08-27T09:08:23;20.50;99.90
14739;DHT22;7461;52.440;13.540;2022-08-27T09:10:56;20.50;99.90
14739;DHT22;7461;52.440;13.540;2022-08-27T09:13:27;20.60;99.90
14739;DHT22;7461;52.440;13.540;2022-08-27T09:16:01;20.70;99.90
14739;DHT22;7461;52.440;13.540;2022-08-27T09:18:30;20.70;99.90
14739;DHT22;7461;52.440;13.540;2022-08-27T09:21:05;20.80;99.90
14739;DHT22;7461;52.440;13.540;2022-08-27T09:23:38;20.90;99.90
14739;DHT22;7461;52.440;13.540;2022-08-27T09:26:16;20.90;99.90
14739;DHT22;7461;52.440;13.540;2022-08-27T09:28:43;20.90;99.90
14739;DHT22;7461;52.440;13.540;2022-08-27T09:31:28;20.90;99.90
14739;DHT22;7461;52.440;13.540;2022-08-27T09:33:57;20.90;99.90
14739;DHT22;7461;52.440;13.540;2022-08-27T09:36:24;20.80;99.90
14739;DHT22;7461;52.440;13.540;2022-08-27T09:38:53;20.80;99.90
14739;DHT22;7461;52.440;13.540;2022-08-27T09:41:25;20.80;99.90
14739;DHT22;7461;52.440;13.540;2022-08-27T09:43:57;20.80;99.90
14739;DHT22;7461;52.440;13.540;2022-08-27T09:46:24;20.80;99.90
14739;DHT22;7461;52.440;13.540;2022-08-27T09:48:52;20.80;99.90
14739;DHT22;7461;52.440;13.540;2022-08-27T09:51:22;20.80;99.90
14739;DHT22;7461;52.440;13.540;2022-08-27T09:53:54;20.80;99.90
14739;DHT22;7461;52.440;13.540;2022-08-27T09:56:28;20.80;99.90
14739;DHT22;7461;52.440;13.540;2022-08-27T09:59:02;20.80;99.90
14739;DHT22;7461;52.440;13.540;2022-08-27T10:01:31;20.80;99.90
14739;DHT22;7461;52.440;13.540;2022-08-27T10:04:07;20.80;99.90
14739;DHT22;7461;52.440;13.540;2022-08-27T10:06:37;20.80;99.90
14739;DHT22;7461;52.440;13.540;2022-08-27T10:09:08;20.80;99.90
14739;DHT22;7461;52.440;13.540;2022-08-27T10:11:39;20.80;99.90
14739;DHT22;7461;52.440;13.540;2022-08-27T10:14:11;20.90;99.90
14739;DHT22;7461;52.440;13.540;2022-08-27T10:17:09;20.90;99.90
14739;DHT22;7461;52.440;13.540;2022-08-27T10:19:45;20.90;99.90
14739;DHT22;7461;52.440;13.540;2022-08-27T10:22:25;20.90;99.90
14739;DHT22;7461;52.440;13.540;2022-08-27T10:25:05;20.90;99.90
14739;DHT22;7461;52.440;13.540;2022-08-27T10:27:38;20.90;99.90
14739;DHT22;7461;52.440;13.540;2022-08-27T10:30:12;20.90;99.90
14739;DHT22;7461;52.440;13.540;2022-08-27T10:32:51;20.90;99.90
14739;DHT22;7461;52.440;13.540;2022-08-27T10:35:22;20.90;99.90
14739;DHT22;7461;52.440;13.540;2022-08-27T10:38:00;20.90;99.90
14739;DHT22;7461;52.440;13.540;2022-08-27T10:40:33;20.90;99.90
14739;DHT22;7461;52.440;13.540;2022-08-27T10:43:15;20.90;99.90
14739;DHT22;7461;52.440;13.540;2022-08-27T10:45:48;20.90;99.90
14739;DHT22;7461;52.440;13.540;2022-08-27T10:48:22;20.90;99.90
14739;DHT22;7461;52.440;13.540;2022-08-27T10:50:55;20.90;99.90
14739;DHT22;7461;52.440;13.540;2022-08-27T10:53:31;20.90;99.90
14739;DHT22;7461;52.440;13.540;2022-08-27T10:56:13;20.90;99.90
14739;DHT22;7461;52.440;13.540;2022-08-27T10:58:56;21.00;99.90
14739;DHT22;7461;52.440;13.540;2022-08-27T11:01:38;21.00;99.90
14739;DHT22;7461;52.440;13.540;2022-08-27T11:04:07;21.00;99.90
14739;DHT22;7461;52.440;13.540;2022-08-27T11:06:38;21.10;99.90
14739;DHT22;7461;52.440;13.540;2022-08-27T11:09:14;21.20;99.90
14739;DHT22;7461;52.440;13.540;2022-08-27T11:11:44;21.20;99.90
14739;DHT22;7461;52.440;13.540;2022-08-27T11:14:22;21.30;99.90
14739;DHT22;7461;52.440;13.540;2022-08-27T11:16:54;21.30;99.90
14739;DHT22;7461;52.440;13.540;2022-08-27T11:19:29;21.30;99.90
14739;DHT22;7461;52.440;13.540;2022-08-27T11:22:03;21.30;99.90
14739;DHT22;7461;52.440;13.540;2022-08-27T11:24:39;21.30;99.90
14739;DHT22;7461;52.440;13.540;2022-08-27T11:27:08;21.40;99.90
14739;DHT22;7461;52.440;13.540;2022-08-27T11:29:39;21.40;99.90
14739;DHT22;7461;52.440;13.540;2022-08-27T11:32:14;21.40;99.90
14739;DHT22;7461;52.440;13.540;2022-08-27T11:34:47;21.60;99.90
14739;DHT22;7461;52.440;13.540;2022-08-27T11:37:26;21.70;99.90
14739;DHT22;7461;52.440;13.540;2022-08-27T11:40:16;21.70;99.90
14739;DHT22;7461;52.440;13.540;2022-08-27T11:42:45;21.70;99.90
14739;DHT22;7461;52.440;13.540;2022-08-27T11:45:18;21.70;99.90
14739;DHT22;7461;52.440;13.540;2022-08-27T11:47:53;21.70;99.90
14739;DHT22;7461;52.440;13.540;2022-08-27T11:50:22;21.70;99.90
14739;DHT22;7461;52.440;13.540;2022-08-27T11:52:55;21.80;99.90
14739;DHT22;7461;52.440;13.540;2022-08-27T11:55:29;21.70;99.90
14739;DHT22;7461;52.440;13.540;2022-08-27T11:58:08;21.70;99.90
14739;DHT22;7461;52.440;13.540;2022-08-27T12:00:37;21.70;99.90
14739;DHT22;7461;52.440;13.540;2022-08-27T12:03:07;21.70;99.90
14739;DHT22;7461;52.440;13.540;2022-08-27T12:05:40;21.80;99.90
14739;DHT22;7461;52.440;13.540;2022-08-27T12:08:17;21.70;99.90
14739;DHT22;7461;52.440;13.540;2022-08-27T12:11:10;21.70;99.90
14739;DHT22;7461;52.440;13.540;2022-08-27T12:13:49;21.70;99.90
14739;DHT22;7461;52.440;13.540;2022-08-27T12:16:24;21.70;99.90
14739;DHT22;7461;52.440;13.540;2022-08-27T12:19:09;21.80;99.90
14739;DHT22;7461;52.440;13.540;2022-08-27T12:21:49;21.80;99.90
14739;DHT22;7461;52.440;13.540;2022-08-27T12:24:36;21.80;99.90
14739;DHT22;7461;52.440;13.540;2022-08-27T12:27:23;21.90;99.90
14739;DHT22;7461;52.440;13.540;2022-08-27T12:29:54;21.80;99.90
14739;DHT22;7461;52.440;13.540;2022-08-27T12:32:26;21.90;99.90
14739;DHT22;7461;52.440;13.540;2022-08-27T12:34:59;21.90;99.90
14739;DHT22;7461;52.440;13.540;2022-08-27T12:37:29;21.90;99.90
14739;DHT22;7461;52.440;13.540;2022-08-27T12:39:58;21.90;99.90
14739;DHT22;7461;52.440;13.540;2022-08-27T12:42:27;21.90;99.90
14739;DHT22;7461;52.440;13.540;2022-08-27T12:44:55;21.90;99.90
14739;DHT22;7461;52.440;13.540;2022-08-27T12:47:24;21.90;99.90
14739;DHT22;7461;52.440;13.540;2022-08-27T12:49:53;21.90;99.90
14739;DHT22;7461;52.440;13.540;2022-08-27T12:52:43;21.90;99.90
14739;DHT22;7461;52.440;13.540;2022-08-27T12:55:19;22.00;99.90
14739;DHT22;7461;52.440;13.540;2022-08-27T12:57:57;22.00;99.90
14739;DHT22;7461;52.440;13.540;2022-08-27T13:00:28;22.00;99.90
14739;DHT22;7461;52.440;13.540;2022-08-27T13:03:15;22.00;99.90
14739;DHT22;7461;52.440;13.540;2022-08-27T13:05:47;22.10;99.90
14739;DHT22;7461;52.440;13.540;2022-08-27T13:08:19;22.10;99.90
14739;DHT22;7461;52.440;13.540;2022-08-27T13:10:47;22.10;99.90
14739;DHT22;7461;52.440;13.540;2022-08-27T13:13:18;22.10;99.90
14739;DHT22;7461;52.440;13.540;2022-08-27T13:15:47;22.10;99.90
14739;DHT22;7461;52.440;13.540;2022-08-27T13:18:15;22.20;99.90
14739;DHT22;7461;52.440;13.540;2022-08-27T13:20:43;22.20;99.90
14739;DHT22;7461;52.440;13.540;2022-08-27T13:23:15;22.20;99.90
14739;DHT22;7461;52.440;13.540;2022-08-27T13:25:53;22.20;99.90
14739;DHT22;7461;52.440;13.540;2022-08-27T13:28:25;22.20;99.90
14739;DHT22;7461;52.440;13.540;2022-08-27T13:30:56;22.20;99.90
14739;DHT22;7461;52.440;13.540;2022-08-27T13:33:27;22.30;99.90
14739;DHT22;7461;52.440;13.540;2022-08-27T13:35:56;22.40;99.90
14739;DHT22;7461;52.440;13.540;2022-08-27T13:38:26;22.40;99.90
14739;DHT22;7461;52.440;13.540;2022-08-27T13:40:57;22.50;99.90
14739;DHT22;7461;52.440;13.540;2022-08-27T13:43:35;22.50;99.90
14739;DHT22;7461;52.440;13.540;2022-08-27T13:46:06;22.60;99.90
14739;DHT22;7461;52.440;13.540;2022-08-27T13:48:35;22.60;99.90
14739;DHT22;7461;52.440;13.540;2022-08-27T13:51:05;22.60;99.90
14739;DHT22;7461;52.440;13.540;2022-08-27T13:53:34;22.60;99.90
14739;DHT22;7461;52.440;13.540;2022-08-27T13:56:27;22.60;99.90
14739;DHT22;7461;52.440;13.540;2022-08-27T13:59:08;22.60;99.90
14739;DHT22;7461;52.440;13.540;2022-08-27T14:01:35;22.60;99.90
14739;DHT22;7461;52.440;13.540;2022-08-27T14:04:04;22.60;99.90
14739;DHT22;7461;52.440;13.540;2022-08-27T14:06:38;22.60;99.90
14739;DHT22;7461;52.440;13.540;2022-08-27T14:09:15;22.60;99.90
14739;DHT22;7461;52.440;13.540;2022-08-27T14:11:44;22.70;99.90
14739;DHT22;7461;52.440;13.540;2022-08-27T14:14:15;22.70;99.90
14739;DHT22;7461;52.440;13.540;2022-08-27T14:16:43;22.70;99.90
14739;DHT22;7461;52.440;13.540;2022-08-27T14:19:12;22.60;99.90
14739;DHT22;7461;52.440;13.540;2022-08-27T14:21:51;22.70;99.90
14739;DHT22;7461;52.440;13.540;2022-08-27T14:24:18;22.70;99.90
14739;DHT22;7461;52.440;13.540;2022-08-27T14:26:48;22.70;99.90
14739;DHT22;7461;52.440;13.540;2022-08-27T14:29:16;22.70;99.90
14739;DHT22;7461;52.440;13.540;2022-08-27T14:31:44;22.60;99.90
14739;DHT22;7461;52.440;13.540;2022-08-27T14:34:11;22.60;99.90
14739;DHT22;7461;52.440;13.540;2022-08-27T14:36:43;22.60;99.90
14739;DHT22;7461;52.440;13.540;2022-08-27T14:39:11;22.60;99.90
14739;DHT22;7461;52.440;13.540;2022-08-27T14:41:41;22.60;99.90
14739;DHT22;7461;52.440;13.540;2022-08-27T14:44:08;22.60;99.90
14739;DHT22;7461;52.440;13.540;2022-08-27T14:46:40;22.60;99.90
14739;DHT22;7461;52.440;13.540;2022-08-27T14:49:23;22.60;99.90
14739;DHT22;7461;52.440;13.540;2022-08-27T14:51:54;22.60;99.90
14739;DHT22;7461;52.440;13.540;2022-08-27T14:54:22;22.60;99.90
14739;DHT22;7461;52.440;13.540;2022-08-27T14:57:01;22.60;99.90
14739;DHT22;7461;52.440;13.540;2022-08-27T14:59:35;22.50;99.90
14739;DHT22;7461;52.440;13.540;2022-08-27T15:02:08;22.50;99.90
14739;DHT22;7461;52.440;13.540;2022-08-27T15:04:42;22.60;99.90
14739;DHT22;7461;52.440;13.540;2022-08-27T15:07:10;22.60;99.90
14739;DHT22;7461;52.440;13.540;2022-08-27T15:09:41;22.60;99.90
14739;DHT22;7461;52.440;13.540;2022-08-27T15:12:11;22.60;99.90
14739;DHT22;7461;52.440;13.540;2022-08-27T15:14:39;22.60;99.90
14739;DHT22;7461;52.440;13.540;2022-08-27T15:17:09;22.60;99.90
14739;DHT22;7461;52.440;13.540;2022-08-27T15:19:36;22.60;99.90
14739;DHT22;7461;52.440;13.540;2022-08-27T15:22:07;22.50;99.90
14739;DHT22;7461;52.440;13.540;2022-08-27T15:24:39;22.50;99.90
14739;DHT22;7461;52.440;13.540;2022-08-27T15:27:07;22.50;99.90
14739;DHT22;7461;52.440;13.540;2022-08-27T15:29:36;22.60;99.90
14739;DHT22;7461;52.440;13.540;2022-08-27T15:32:03;22.50;99.90
14739;DHT22;7461;52.440;13.540;2022-08-27T15:34:34;22.50;99.90
14739;DHT22;7461;52.440;13.540;2022-08-27T15:37:01;22.50;99.90
14739;DHT22;7461;52.440;13.540;2022-08-27T15:39:28;22.50;99.90
14739;DHT22;7461;52.440;13.540;2022-08-27T15:41:55;22.50;99.90
14739;DHT22;7461;52.440;13.540;2022-08-27T15:44:22;22.50;99.90
14739;DHT22;7461;52.440;13.540;2022-08-27T15:46:48;22.40;99.90
14739;DHT22;7461;52.440;13.540;2022-08-27T15:49:16;22.40;99.90